createdAt,value
2023-01-04T00:02:01.108Z,15.67
2023-01-04T00:04:29.544Z,16.13
2023-01-04T00:06:57.514Z,15.97
2023-01-04T00:09:25.805Z,16.33
2023-01-04T00:11:53.664Z,16.40
2023-01-04T00:14:21.714Z,17.10
2023-01-04T00:16:49.554Z,19.37
2023-01-04T00:19:17.793Z,22.73
2023-01-04T00:21:45.629Z,20.10
2023-01-04T00:24:15.514Z,18.10
2023-01-04T00:26:43.292Z,16.30
2023-01-04T00:29:15.280Z,18.00
2023-01-04T00:31:44.846Z,17.30
2023-01-04T00:34:15.399Z,16.80
2023-01-04T00:36:44.068Z,16.43
2023-01-04T00:39:16.702Z,17.90
2023-01-04T00:42:01.188Z,18.13
2023-01-04T00:44:31.706Z,17.73
2023-01-04T00:47:00.513Z,16.63
2023-01-04T00:49:28.996Z,16.63
2023-01-04T00:51:56.803Z,19.80
2023-01-04T00:54:25.172Z,24.10
2023-01-04T00:56:53.105Z,23.87
2023-01-04T00:59:22.956Z,24.33
2023-01-04T01:01:51.634Z,23.40
2023-01-04T01:04:22.400Z,21.17
2023-01-04T01:06:51.577Z,22.37
2023-01-04T01:09:23.197Z,22.57
2023-01-04T01:11:52.918Z,22.33
2023-01-04T01:14:24.770Z,20.03
2023-01-04T01:16:59.665Z,22.07
2023-01-04T01:19:29.241Z,19.37
2023-01-04T01:21:58.094Z,20.73
2023-01-04T01:24:26.936Z,20.90
2023-01-04T01:26:55.731Z,19.43
2023-01-04T01:29:23.857Z,18.37
2023-01-04T01:31:51.740Z,23.43
2023-01-04T01:34:20.737Z,21.80
2023-01-04T01:36:48.688Z,23.27
2023-01-04T01:39:16.365Z,22.83
2023-01-04T01:41:44.365Z,25.00
2023-01-04T01:44:43.242Z,24.80
2023-01-04T01:47:25.319Z,21.03
2023-01-04T01:49:54.883Z,22.43
2023-01-04T01:52:30.146Z,20.40
2023-01-04T01:55:02.882Z,20.17
2023-01-04T01:57:34.253Z,20.90
2023-01-04T02:00:13.263Z,19.67
2023-01-04T02:03:09.741Z,20.93
2023-01-04T02:05:38.361Z,20.53
2023-01-04T02:08:07.199Z,21.03
2023-01-04T02:10:35.408Z,21.30
2023-01-04T02:13:07.698Z,21.00
2023-01-04T02:16:01.486Z,21.40
2023-01-04T02:18:39.012Z,21.63
2023-01-04T02:21:23.067Z,23.03
2023-01-04T02:23:50.918Z,22.17
2023-01-04T02:26:18.951Z,21.43
2023-01-04T02:29:23.719Z,19.90
2023-01-04T02:31:57.504Z,19.07
2023-01-04T02:34:44.885Z,19.03
2023-01-04T02:37:19.355Z,19.90
2023-01-04T02:40:07.731Z,19.67
2023-01-04T02:43:38.398Z,19.77
2023-01-04T02:46:22.700Z,20.90
2023-01-04T02:49:09.744Z,21.00
2023-01-04T02:51:38.642Z,20.83
2023-01-04T02:54:14.058Z,20.17
2023-01-04T02:56:47.680Z,19.77
2023-01-04T02:59:21.681Z,20.93
2023-01-04T03:02:08.174Z,20.77
2023-01-04T03:05:20.496Z,19.70
2023-01-04T03:08:12.728Z,20.57
2023-01-04T03:10:56.964Z,19.80
2023-01-04T03:13:42.549Z,21.37
2023-01-04T03:16:16.187Z,21.57
2023-01-04T03:18:50.926Z,35.53
2023-01-04T03:21:22.013Z,23.30
2023-01-04T03:24:10.893Z,23.00
2023-01-04T03:27:05.713Z,22.97
2023-01-04T03:29:57.997Z,27.77
2023-01-04T03:32:59.316Z,27.50
2023-01-04T03:35:40.813Z,33.90
2023-01-04T03:38:38.053Z,22.93
2023-01-04T03:41:41.568Z,20.87
2023-01-04T03:44:52.817Z,21.87
2023-01-04T03:47:46.593Z,21.80
2023-01-04T03:50:23.013Z,20.37
2023-01-04T03:52:51.684Z,21.43
2023-01-04T03:55:20.040Z,21.13
2023-01-04T03:57:48.240Z,20.73
2023-01-04T04:00:19.191Z,21.37
2023-01-04T04:02:48.318Z,21.27
2023-01-04T04:05:39.157Z,23.00
2023-01-04T04:08:25.296Z,21.93
2023-01-04T04:10:53.747Z,22.87
2023-01-04T04:13:21.795Z,22.07
2023-01-04T04:15:49.918Z,22.77
2023-01-04T04:18:17.673Z,22.50
2023-01-04T04:20:45.761Z,23.70
2023-01-04T04:23:13.543Z,23.47
2023-01-04T04:25:41.544Z,23.33
2023-01-04T04:28:09.319Z,23.03
2023-01-04T04:30:37.644Z,21.60
2023-01-04T04:33:05.438Z,22.30
2023-01-04T04:35:33.656Z,21.70
2023-01-04T04:38:01.731Z,23.47
2023-01-04T04:40:48.257Z,22.70
2023-01-04T04:43:16.075Z,23.13
2023-01-04T04:45:44.137Z,22.90
2023-01-04T04:48:11.881Z,21.97
2023-01-04T04:50:39.958Z,23.60
2023-01-04T04:53:10.201Z,23.60
2023-01-04T04:55:38.183Z,25.73
2023-01-04T04:58:05.923Z,24.90
2023-01-04T05:00:33.972Z,23.77
2023-01-04T05:03:02.313Z,27.07
2023-01-04T05:05:30.687Z,27.43
2023-01-04T05:07:58.597Z,28.10
2023-01-04T05:10:26.753Z,29.40
2023-01-04T05:13:00.682Z,30.90
2023-01-04T05:15:34.545Z,31.47
2023-01-04T05:18:02.623Z,31.23
2023-01-04T05:20:30.780Z,32.70
2023-01-04T05:22:58.436Z,32.80
2023-01-04T05:25:27.237Z,35.43
2023-01-04T05:27:55.133Z,33.90
2023-01-04T05:30:43.217Z,37.93
2023-01-04T05:33:11.398Z,39.50
2023-01-04T05:35:40.343Z,37.90
2023-01-04T05:38:08.913Z,41.93
2023-01-04T05:40:37.004Z,41.10
2023-01-04T05:43:04.779Z,45.27
2023-01-04T05:45:32.966Z,46.60
2023-01-04T05:48:01.130Z,47.20
2023-01-04T05:50:29.369Z,45.43
2023-01-04T05:53:08.159Z,43.40
2023-01-04T05:55:36.310Z,40.07
2023-01-04T05:58:04.271Z,43.53
2023-01-04T06:00:32.818Z,37.37
2023-01-04T06:03:00.905Z,35.03
2023-01-04T06:05:28.918Z,33.70
2023-01-04T06:07:56.814Z,35.97
2023-01-04T06:10:24.832Z,33.00
2023-01-04T06:12:52.582Z,34.33
2023-01-04T06:15:20.938Z,34.33
2023-01-04T06:17:48.454Z,33.47
2023-01-04T06:20:16.783Z,32.13
2023-01-04T06:22:44.884Z,34.33
2023-01-04T06:25:12.972Z,35.00
2023-01-04T06:27:40.813Z,35.17
2023-01-04T06:30:09.277Z,33.93
2023-01-04T06:32:37.119Z,34.50
2023-01-04T06:35:05.652Z,35.47
2023-01-04T06:37:33.400Z,35.77
2023-01-04T06:40:01.438Z,36.87
2023-01-04T06:42:47.641Z,38.37
2023-01-04T06:45:17.089Z,34.97
2023-01-04T06:47:45.038Z,36.17
2023-01-04T06:50:13.186Z,38.37
2023-01-04T06:52:41.163Z,38.63
2023-01-04T06:55:09.799Z,40.37
2023-01-04T06:57:38.021Z,43.97
2023-01-04T07:00:07.201Z,44.53
2023-01-04T07:02:35.134Z,46.67
2023-01-04T07:05:03.949Z,44.43
2023-01-04T07:07:33.421Z,46.53
2023-01-04T07:10:08.911Z,47.47
2023-01-04T07:12:38.959Z,47.27
2023-01-04T07:15:38.130Z,47.90
2023-01-04T07:17:57.867Z,46.90
2023-01-04T07:20:26.551Z,51.50
2023-01-04T07:22:54.298Z,48.90
2023-01-04T07:25:22.586Z,49.07
2023-01-04T07:27:53.795Z,47.10
2023-01-04T07:30:23.639Z,50.03
2023-01-04T07:32:55.646Z,49.23
2023-01-04T07:35:24.044Z,49.43
2023-01-04T07:37:57.778Z,49.67
2023-01-04T07:40:26.909Z,49.03
2023-01-04T07:42:57.208Z,56.10
2023-01-04T07:45:25.806Z,58.47
2023-01-04T07:47:53.768Z,54.27
2023-01-04T07:50:21.810Z,49.13
2023-01-04T07:52:49.681Z,49.80
2023-01-04T07:55:17.869Z,50.53
2023-01-04T07:57:45.656Z,53.40
2023-01-04T08:00:13.989Z,59.57
2023-01-04T08:02:41.921Z,51.47
2023-01-04T08:05:10.607Z,51.87
2023-01-04T08:07:38.486Z,49.47
2023-01-04T08:10:06.723Z,49.17
2023-01-04T08:12:35.021Z,46.37
2023-01-04T08:15:03.324Z,47.57
2023-01-04T08:17:31.156Z,44.40
2023-01-04T08:20:01.658Z,45.53
2023-01-04T08:22:29.589Z,46.90
2023-01-04T08:24:57.873Z,45.80
2023-01-04T08:27:25.714Z,41.33
2023-01-04T08:29:53.718Z,41.93
2023-01-04T08:32:21.433Z,40.60
2023-01-04T08:34:49.372Z,40.47
2023-01-04T08:37:17.071Z,38.70
2023-01-04T08:39:48.941Z,37.53
2023-01-04T08:42:25.112Z,36.23
2023-01-04T08:45:01.240Z,38.60
2023-01-04T08:47:30.560Z,36.53
2023-01-04T08:49:59.462Z,34.37
2023-01-04T08:52:29.017Z,34.10
2023-01-04T08:54:57.384Z,33.80
2023-01-04T08:57:25.259Z,36.47
2023-01-04T08:59:53.461Z,35.90
2023-01-04T09:02:22.045Z,32.47
2023-01-04T09:04:50.786Z,31.53
2023-01-04T09:07:19.175Z,31.40
2023-01-04T09:09:47.227Z,31.37
2023-01-04T09:12:14.685Z,33.17
2023-01-04T09:14:42.608Z,34.13
2023-01-04T09:17:10.920Z,33.23
2023-01-04T09:19:38.494Z,34.40
2023-01-04T09:22:06.489Z,29.87
2023-01-04T09:24:35.045Z,31.97
2023-01-04T09:27:04.850Z,33.20
2023-01-04T09:29:32.999Z,31.63
2023-01-04T09:32:00.876Z,32.17
2023-01-04T09:34:28.968Z,31.37
2023-01-04T09:36:56.828Z,30.43
2023-01-04T09:39:26.531Z,30.47
2023-01-04T09:41:54.279Z,32.57
2023-01-04T09:47:57.471Z,32.00
2023-01-04T09:50:31.939Z,29.40
2023-01-04T09:53:09.629Z,31.23
2023-01-04T09:55:42.339Z,30.47
2023-01-04T09:58:48.405Z,30.70
2023-01-04T10:01:19.143Z,31.00
2023-01-04T10:04:04.337Z,27.63
2023-01-04T10:06:34.426Z,30.83
2023-01-04T10:09:06.896Z,27.37
2023-01-04T10:11:52.969Z,26.77
2023-01-04T10:14:44.075Z,26.23
2023-01-04T10:18:43.453Z,27.03
2023-01-04T10:21:23.571Z,26.23
2023-01-04T10:24:12.356Z,25.67
2023-01-04T10:26:51.187Z,26.47
2023-01-04T10:29:45.197Z,27.40
2023-01-04T10:32:41.336Z,25.23
2023-01-04T10:35:21.112Z,24.27
2023-01-04T10:37:52.546Z,30.33
2023-01-04T10:40:20.774Z,27.33
2023-01-04T10:43:02.488Z,24.40
2023-01-04T10:45:43.587Z,22.83
2023-01-04T10:48:12.373Z,22.97
2023-01-04T10:50:48.784Z,23.17
2023-01-04T10:53:16.340Z,23.63
2023-01-04T10:56:25.482Z,22.57
2023-01-04T10:58:53.504Z,22.23
2023-01-04T11:01:42.320Z,23.60
2023-01-04T11:04:19.178Z,22.73
2023-01-04T11:07:13.383Z,24.73
2023-01-04T11:09:41.020Z,21.60
2023-01-04T11:12:13.232Z,22.67
2023-01-04T11:14:41.278Z,22.70
2023-01-04T11:17:11.827Z,21.07
2023-01-04T11:19:40.755Z,21.50
2023-01-04T11:22:43.720Z,21.63
2023-01-04T11:28:08.647Z,21.17
2023-01-04T11:30:54.347Z,20.70
2023-01-04T11:33:23.942Z,22.33
2023-01-04T11:35:53.717Z,21.10
2023-01-04T11:38:23.651Z,20.37
2023-01-04T11:41:05.732Z,19.57
2023-01-04T11:43:35.606Z,20.07
2023-01-04T11:46:13.473Z,21.23
2023-01-04T11:48:44.352Z,20.03
2023-01-04T11:51:25.495Z,19.70
2023-01-04T11:53:59.588Z,20.97
2023-01-04T11:56:32.353Z,21.10
2023-01-04T11:59:04.939Z,20.57
2023-01-04T12:01:34.395Z,19.73
2023-01-04T12:04:04.034Z,20.07
2023-01-04T12:06:52.555Z,20.53
2023-01-04T12:09:22.055Z,21.90
2023-01-04T12:11:52.371Z,21.07
2023-01-04T12:14:28.890Z,22.00
2023-01-04T12:17:04.694Z,21.30
2023-01-04T12:19:32.561Z,20.77
2023-01-04T12:22:01.948Z,20.37
2023-01-04T12:24:33.009Z,21.53
2023-01-04T12:27:01.785Z,20.00
2023-01-04T12:29:40.277Z,22.23
2023-01-04T12:32:08.082Z,24.57
2023-01-04T12:34:40.302Z,19.03
2023-01-04T12:37:08.160Z,19.43
2023-01-04T12:39:41.493Z,19.13
2023-01-04T12:42:15.583Z,18.87
2023-01-04T12:44:43.497Z,19.70
2023-01-04T12:47:35.586Z,16.93
2023-01-04T12:50:11.932Z,20.10
2023-01-04T12:53:02.383Z,20.07
2023-01-04T12:55:36.752Z,18.63
2023-01-04T12:58:58.274Z,19.87
2023-01-04T13:01:36.683Z,19.77
2023-01-04T13:04:26.772Z,21.00
2023-01-04T13:06:55.914Z,21.93
2023-01-04T13:09:25.369Z,21.13
2023-01-04T13:12:14.208Z,23.03
2023-01-04T13:14:51.211Z,23.47
2023-01-04T13:17:22.550Z,22.77
2023-01-04T13:19:50.606Z,23.53
2023-01-04T13:22:30.843Z,24.20
2023-01-04T13:25:01.817Z,25.80
2023-01-04T13:27:29.404Z,25.80
2023-01-04T13:29:56.935Z,25.73
2023-01-04T13:32:30.827Z,26.50
2023-01-04T13:35:08.366Z,25.77
2023-01-04T13:37:51.434Z,25.37
2023-01-04T13:40:25.805Z,26.03
2023-01-04T13:42:56.468Z,25.93
2023-01-04T13:45:24.204Z,28.43
2023-01-04T13:47:57.163Z,27.10
2023-01-04T13:50:31.212Z,26.40
2023-01-04T13:53:06.739Z,26.33
2023-01-04T13:55:38.031Z,25.70
2023-01-04T13:58:07.812Z,27.03
2023-01-04T14:01:07.112Z,27.60
2023-01-04T14:03:35.477Z,26.50
2023-01-04T14:06:21.615Z,27.73
2023-01-04T14:08:54.629Z,31.90
2023-01-04T14:12:13.344Z,25.60
2023-01-04T14:14:41.325Z,27.43
2023-01-04T14:17:56.283Z,27.67
2023-01-04T14:20:24.247Z,27.33
2023-01-04T14:22:57.117Z,25.87
2023-01-04T14:25:34.129Z,27.43
2023-01-04T14:28:17.692Z,26.90
2023-01-04T14:30:48.018Z,27.03
2023-01-04T14:33:19.906Z,25.63
2023-01-04T14:36:07.542Z,26.00
2023-01-04T14:38:44.956Z,24.20
2023-01-04T14:41:25.281Z,26.50
2023-01-04T14:43:54.080Z,23.97
2023-01-04T14:46:23.187Z,26.13
2023-01-04T14:48:51.091Z,23.87
2023-01-04T14:51:21.472Z,21.33
2023-01-04T14:53:49.704Z,20.60
2023-01-04T14:56:19.235Z,21.43
2023-01-04T14:58:47.198Z,19.80
2023-01-04T15:01:15.221Z,20.10
2023-01-04T15:03:43.394Z,21.40
2023-01-04T15:06:12.116Z,18.93
2023-01-04T15:08:40.250Z,19.03
2023-01-04T15:11:14.048Z,19.73
2023-01-04T15:13:42.617Z,18.00
2023-01-04T15:16:13.910Z,18.03
2023-01-04T15:18:42.080Z,20.13
2023-01-04T15:21:10.689Z,19.47
2023-01-04T15:23:38.804Z,20.03
2023-01-04T15:26:08.486Z,18.83
2023-01-04T15:28:37.127Z,17.73
2023-01-04T15:31:11.075Z,18.73
2023-01-04T15:33:39.529Z,20.57
2023-01-04T15:36:23.725Z,21.87
2023-01-04T15:38:55.151Z,20.57
2023-01-04T15:41:41.917Z,21.97
2023-01-04T15:44:11.862Z,22.87
2023-01-04T15:46:40.679Z,22.73
2023-01-04T15:49:14.971Z,22.47
2023-01-04T15:51:45.426Z,21.60
2023-01-04T15:54:13.491Z,20.50
2023-01-04T15:56:41.664Z,22.00
2023-01-04T15:59:09.724Z,25.10
2023-01-04T16:01:38.328Z,22.50
2023-01-04T16:04:09.495Z,22.90
2023-01-04T16:06:37.568Z,23.83
2023-01-04T16:09:05.874Z,19.83
2023-01-04T16:11:34.669Z,23.67
2023-01-04T16:14:03.370Z,22.90
2023-01-04T16:16:33.087Z,23.57
2023-01-04T16:19:02.245Z,23.00
2023-01-04T16:21:31.703Z,21.80
2023-01-04T16:24:07.205Z,23.33
2023-01-04T16:26:38.074Z,27.03
2023-01-04T16:29:06.676Z,25.47
2023-01-04T16:31:37.646Z,28.40
2023-01-04T16:34:06.204Z,26.03
2023-01-04T16:36:34.473Z,21.23
2023-01-04T16:39:02.512Z,22.33
2023-01-04T16:41:31.038Z,22.00
2023-01-04T16:44:02.100Z,21.03
2023-01-04T16:46:37.088Z,22.10
2023-01-04T16:49:06.251Z,20.83
2023-01-04T16:51:36.241Z,20.87
2023-01-04T16:54:10.265Z,20.57
2023-01-04T16:56:39.921Z,21.03
2023-01-04T16:59:08.800Z,18.60
2023-01-04T17:01:42.286Z,19.80
2023-01-04T17:04:17.552Z,20.03
2023-01-04T17:06:48.394Z,20.27
2023-01-04T17:09:21.322Z,20.20
2023-01-04T17:15:00.745Z,20.07
2023-01-04T17:17:36.610Z,18.70
2023-01-04T17:20:06.616Z,19.57
2023-01-04T17:22:35.570Z,17.17
2023-01-04T17:25:04.773Z,16.97
2023-01-04T17:27:33.635Z,18.70
2023-01-04T17:30:01.961Z,17.63
2023-01-04T17:32:30.774Z,18.00
2023-01-04T17:34:58.939Z,18.33
2023-01-04T17:37:27.563Z,19.63
2023-01-04T17:39:56.095Z,18.53
2023-01-04T17:42:24.285Z,19.90
2023-01-04T17:44:52.584Z,19.77
2023-01-04T17:47:20.887Z,18.57
2023-01-04T17:49:48.907Z,20.67
2023-01-04T17:52:24.425Z,19.10
2023-01-04T17:54:53.921Z,18.60
2023-01-04T17:57:22.152Z,18.73
2023-01-04T17:59:49.969Z,18.97
2023-01-04T18:02:18.867Z,20.70
2023-01-04T18:04:47.990Z,19.73
2023-01-04T18:07:16.941Z,20.20
2023-01-04T18:09:45.136Z,19.57
2023-01-04T18:12:14.329Z,19.03
2023-01-04T18:14:42.663Z,18.07
2023-01-04T18:17:11.222Z,16.53
2023-01-04T18:19:41.650Z,16.97
2023-01-04T18:22:14.723Z,17.37
2023-01-04T18:24:43.201Z,17.67
2023-01-04T18:27:23.193Z,16.27
2023-01-04T18:29:56.885Z,16.20
2023-01-04T18:32:27.493Z,17.20
2023-01-04T18:34:55.685Z,17.60
2023-01-04T18:37:24.042Z,17.20
2023-01-04T18:39:51.778Z,16.87
2023-01-04T18:42:19.738Z,15.77
2023-01-04T18:44:49.335Z,15.57
2023-01-04T18:47:20.530Z,15.77
2023-01-04T18:49:49.930Z,15.67
2023-01-04T18:52:18.315Z,15.07
2023-01-04T18:54:48.244Z,15.73
2023-01-04T18:57:19.437Z,15.93
2023-01-04T18:59:50.355Z,15.67
2023-01-04T19:02:20.615Z,15.73
2023-01-04T19:04:49.008Z,15.60
2023-01-04T19:07:16.939Z,16.93
2023-01-04T19:09:44.588Z,15.47
2023-01-04T19:12:12.948Z,16.70
2023-01-04T19:14:41.953Z,16.80
2023-01-04T19:17:11.173Z,17.37
2023-01-04T19:19:39.090Z,17.43
2023-01-04T19:22:07.092Z,18.93
2023-01-04T19:24:34.549Z,18.10
2023-01-04T19:27:05.870Z,18.67
2023-01-04T19:29:34.431Z,18.57
2023-01-04T19:32:02.939Z,19.47
2023-01-04T19:34:31.659Z,19.10
2023-01-04T19:37:01.973Z,20.00
2023-01-04T19:39:30.719Z,20.03
2023-01-04T19:41:59.347Z,21.80
2023-01-04T19:44:27.132Z,22.17
2023-01-04T19:46:54.994Z,22.63
2023-01-04T19:49:23.535Z,22.17
2023-01-04T19:51:51.905Z,22.17
2023-01-04T19:54:25.167Z,21.77
2023-01-04T19:56:55.831Z,23.93
2023-01-04T19:59:24.608Z,23.50
2023-01-04T20:01:53.518Z,21.13
2023-01-04T20:04:23.048Z,22.63
2023-01-04T20:06:51.415Z,20.27
2023-01-04T20:09:25.056Z,19.77
2023-01-04T20:11:55.341Z,20.53
2023-01-04T20:14:23.804Z,18.37
2023-01-04T20:16:52.411Z,20.07
2023-01-04T20:19:21.634Z,18.87
2023-01-04T20:21:50.607Z,20.40
2023-01-04T20:24:21.268Z,18.10
2023-01-04T20:26:50.483Z,17.80
2023-01-04T20:29:18.433Z,18.40
2023-01-04T20:31:47.259Z,17.20
2023-01-04T20:34:16.028Z,18.37
2023-01-04T20:36:44.760Z,18.60
2023-01-04T20:39:13.640Z,18.73
2023-01-04T20:42:02.138Z,18.67
2023-01-04T20:44:30.545Z,15.83
2023-01-04T20:46:59.005Z,17.67
2023-01-04T20:49:27.527Z,15.23
2023-01-04T20:51:56.830Z,17.80
2023-01-04T20:54:24.847Z,17.80
2023-01-04T20:56:53.052Z,16.37
2023-01-04T20:59:20.986Z,15.73
2023-01-04T21:01:50.317Z,16.00
2023-01-04T21:04:18.824Z,16.03
2023-01-04T21:06:47.924Z,16.73
2023-01-04T21:09:15.988Z,16.77
2023-01-04T21:11:44.748Z,15.43
2023-01-04T21:14:13.606Z,15.70
2023-01-04T21:16:42.148Z,14.67
2023-01-04T21:19:10.366Z,14.80
2023-01-04T21:21:39.253Z,15.83
2023-01-04T21:24:07.641Z,16.00
2023-01-04T21:26:36.004Z,17.47
2023-01-04T21:29:04.991Z,15.83
2023-01-04T21:31:33.640Z,14.83
2023-01-04T21:34:05.482Z,14.00
2023-01-04T21:36:37.657Z,14.60
2023-01-04T21:39:05.886Z,14.67
2023-01-04T21:41:34.153Z,14.20
2023-01-04T21:44:03.735Z,13.17
2023-01-04T21:46:33.614Z,13.53
2023-01-04T21:49:02.389Z,13.17
2023-01-04T21:51:30.964Z,12.37
2023-01-04T21:53:59.425Z,12.77
2023-01-04T21:56:27.701Z,12.70
2023-01-04T21:58:55.830Z,12.97
2023-01-04T22:01:29.854Z,12.60
2023-01-04T22:04:02.442Z,12.70
2023-01-04T22:06:33.173Z,13.10
2023-01-04T22:09:01.048Z,12.73
2023-01-04T22:11:29.220Z,11.77
2023-01-04T22:13:57.420Z,11.13
2023-01-04T22:16:25.678Z,12.07
2023-01-04T22:18:53.564Z,11.73
2023-01-04T22:21:26.944Z,10.60
2023-01-04T22:23:54.952Z,11.13
2023-01-04T22:26:23.085Z,11.33
2023-01-04T22:28:50.863Z,10.73
2023-01-04T22:31:18.966Z,10.07
2023-01-04T22:33:46.925Z,10.73
2023-01-04T22:36:22.378Z,11.40
2023-01-04T22:38:55.502Z,11.53
2023-01-04T22:41:25.925Z,11.10
2023-01-04T22:44:03.439Z,11.90
2023-01-04T22:46:34.551Z,10.27
2023-01-04T22:49:02.857Z,10.13
2023-01-04T22:51:32.211Z,9.33
2023-01-04T22:54:02.105Z,9.77
2023-01-04T22:56:30.615Z,9.67
2023-01-04T22:58:58.504Z,9.80
2023-01-04T23:01:28.788Z,8.57
2023-01-04T23:03:56.918Z,8.43
2023-01-04T23:06:25.593Z,8.80
2023-01-04T23:09:00.955Z,9.63
2023-01-04T23:11:30.113Z,8.20
2023-01-04T23:13:58.440Z,8.23
2023-01-04T23:16:32.210Z,8.40
2023-01-04T23:19:05.223Z,7.60
2023-01-04T23:21:34.664Z,7.37
2023-01-04T23:24:02.670Z,6.83
2023-01-04T23:26:31.164Z,6.17
2023-01-04T23:28:59.099Z,5.80
2023-01-04T23:31:28.513Z,6.40
2023-01-04T23:33:58.034Z,5.07
2023-01-04T23:36:28.094Z,4.97
2023-01-04T23:38:57.373Z,3.90
2023-01-04T23:41:45.146Z,3.27
2023-01-04T23:44:14.760Z,2.30
2023-01-04T23:46:43.041Z,2.17
2023-01-04T23:49:11.310Z,1.90
2023-01-04T23:51:39.657Z,2.37
2023-01-04T23:54:08.581Z,2.13
2023-01-04T23:56:37.539Z,1.80
2023-01-04T23:59:05.755Z,1.20
